Time;durP1;ratioP1;P1;durP2;ratioP2;P2;SDS_P1;SDS_P2;PMS_P1;PMS_P2;Temp;Humidity;BMP_temperature;BMP_pressure;BME280_temperature;BME280_humidity;BME280_pressure;Samples;Min_cycle;Max_cycle;Signal;HPM_P1;HPM_P2
2021/05/08 00:01:17;;;;;;;10.60;8.03;;;11.40;99.90;;;;;;5046090;28;20172;-73
2021/05/08 00:03:43;;;;;;;10.73;7.37;;;11.10;99.90;;;;;;5046488;28;20252;-73
2021/05/08 00:06:10;;;;;;;14.50;7.33;;;11.00;99.90;;;;;;5043707;28;20158;-73
2021/05/08 00:08:36;;;;;;;8.50;6.87;;;10.80;99.90;;;;;;5046353;28;20165;-73
2021/05/08 00:11:02;;;;;;;11.97;7.40;;;10.80;99.90;;;;;;5045855;28;20232;-73
2021/05/08 00:13:28;;;;;;;11.10;7.13;;;10.70;99.90;;;;;;5046466;28;20173;-73
2021/05/08 00:15:54;;;;;;;11.03;7.40;;;10.60;99.90;;;;;;5043514;28;20169;-73
2021/05/08 00:18:19;;;;;;;12.20;7.70;;;10.40;99.90;;;;;;5046055;28;20461;-73
2021/05/08 00:20:45;;;;;;;9.97;7.30;;;10.30;99.90;;;;;;5028394;28;20185;-73
2021/05/08 00:23:11;;;;;;;12.30;7.60;;;10.20;99.90;;;;;;5046268;28;20224;-73
2021/05/08 00:25:37;;;;;;;8.00;7.20;;;10.30;99.90;;;;;;5025399;28;20268;-73
2021/05/08 00:28:03;;;;;;;8.30;7.40;;;10.20;99.90;;;;;;5046003;28;20165;-73
2021/05/08 00:30:28;;;;;;;12.30;7.40;;;10.20;99.90;;;;;;5046044;28;20224;-73
2021/05/08 00:32:54;;;;;;;11.93;7.73;;;10.10;99.90;;;;;;5045926;28;20220;-73
2021/05/08 00:35:20;;;;;;;12.37;7.23;;;10.00;99.90;;;;;;5043563;28;20174;-73
2021/05/08 00:37:45;;;;;;;10.87;7.47;;;10.00;99.90;;;;;;5045572;28;20166;-73
2021/05/08 00:40:12;;;;;;;13.00;7.80;;;10.00;99.90;;;;;;5045500;28;20233;-73
2021/05/08 00:42:38;;;;;;;8.37;7.37;;;10.00;99.90;;;;;;5045551;28;20204;-73
2021/05/08 00:45:05;;;;;;;9.57;7.33;;;9.90;99.90;;;;;;5045470;28;20165;-73
2021/05/08 00:47:32;;;;;;;12.40;7.10;;;9.90;99.90;;;;;;5044206;28;20161;-73
2021/05/08 00:49:58;;;;;;;10.00;7.30;;;10.00;99.90;;;;;;5045775;28;20681;-73
2021/05/08 00:52:23;;;;;;;10.53;7.97;;;9.90;99.90;;;;;;5045568;28;20165;-73
2021/05/08 00:54:49;;;;;;;15.87;7.00;;;10.10;99.90;;;;;;5044419;28;20173;-73
2021/05/08 00:57:15;;;;;;;9.60;7.60;;;10.10;99.90;;;;;;5042939;28;20169;-73
2021/05/08 00:59:40;;;;;;;9.00;7.43;;;10.10;99.90;;;;;;5045436;28;20181;-73
2021/05/08 01:02:06;;;;;;;10.20;7.80;;;10.20;99.90;;;;;;5045263;28;20212;-73
2021/05/08 01:04:32;;;;;;;9.07;7.90;;;10.20;99.90;;;;;;5045559;28;20193;-73
2021/05/08 01:07:01;;;;;;;13.63;8.50;;;10.20;99.90;;;;;;5043191;28;20176;-73
2021/05/08 01:09:28;;;;;;;10.30;7.93;;;10.20;99.90;;;;;;5045067;28;20691;-73
2021/05/08 01:11:55;;;;;;;8.67;7.77;;;10.20;99.90;;;;;;5045757;28;20174;-73
2021/05/08 01:14:21;;;;;;;10.53;7.80;;;10.30;99.90;;;;;;5045618;28;20207;-73
2021/05/08 01:16:47;;;;;;;11.77;7.77;;;10.30;99.90;;;;;;5043105;28;20173;-73
2021/05/08 01:19:16;;;;;;;8.70;7.53;;;10.30;99.90;;;;;;5045362;28;20173;-74
2021/05/08 01:21:42;;;;;;;11.00;8.23;;;10.30;99.90;;;;;;5045552;28;20272;-73
2021/05/08 01:24:08;;;;;;;10.23;8.03;;;10.30;99.90;;;;;;5045163;28;20165;-73
2021/05/08 01:26:34;;;;;;;9.80;8.10;;;10.50;99.90;;;;;;5042982;28;20161;-73
2021/05/08 01:29:00;;;;;;;11.63;8.33;;;10.50;99.90;;;;;;5045622;28;20173;-73
2021/05/08 01:31:26;;;;;;;12.03;8.03;;;10.50;99.90;;;;;;5045425;28;20172;-73
2021/05/08 01:33:51;;;;;;;13.83;8.60;;;10.50;99.90;;;;;;5045075;28;20205;-73
2021/05/08 01:36:17;;;;;;;10.40;9.00;;;10.50;99.90;;;;;;5042625;28;20517;-73
2021/05/08 01:38:43;;;;;;;9.23;8.23;;;10.50;99.90;;;;;;5045088;28;20161;-73
2021/05/08 01:41:11;;;;;;;9.87;8.40;;;10.50;99.90;;;;;;5044910;28;20256;-73
2021/05/08 01:43:37;;;;;;;11.93;9.23;;;10.50;99.90;;;;;;5045331;28;20197;-73
2021/05/08 01:46:04;;;;;;;13.70;9.07;;;10.50;99.90;;;;;;5042711;28;20615;-73
2021/05/08 01:48:30;;;;;;;10.83;8.80;;;10.40;99.90;;;;;;5045158;28;20193;-73
2021/05/08 01:50:56;;;;;;;11.40;9.13;;;10.40;99.90;;;;;;5045137;28;20176;-73
2021/05/08 01:53:22;;;;;;;20.80;10.37;;;10.50;99.90;;;;;;5045189;28;20216;-73
2021/05/08 01:55:49;;;;;;;12.27;8.87;;;10.50;99.90;;;;;;5042154;28;20212;-73
2021/05/08 01:58:15;;;;;;;10.83;9.60;;;10.50;99.90;;;;;;5045228;28;20178;-73
2021/05/08 02:00:46;;;;;;;16.50;9.30;;;10.30;99.90;;;;;;5045077;28;20182;-73
2021/05/08 02:03:13;;;;;;;12.10;9.33;;;10.40;99.90;;;;;;5044929;28;20212;-73
2021/05/08 02:05:39;;;;;;;11.30;9.13;;;10.30;99.90;;;;;;5042779;28;20249;-73
2021/05/08 02:08:06;;;;;;;15.50;9.63;;;10.30;99.90;;;;;;5048434;28;20168;-73
2021/05/08 02:10:37;;;;;;;13.63;9.77;;;10.20;99.90;;;;;;5048123;28;20176;-73
2021/05/08 02:13:05;;;;;;;12.73;9.07;;;10.20;99.90;;;;;;5048657;28;20170;-73
2021/05/08 02:15:31;;;;;;;14.97;9.20;;;10.20;99.90;;;;;;5028243;28;20166;-73
2021/05/08 02:17:57;;;;;;;12.20;9.73;;;10.30;99.90;;;;;;5048492;28;20165;-73
2021/05/08 02:20:29;;;;;;;17.00;8.70;;;10.40;99.90;;;;;;5048217;28;20169;-73
2021/05/08 02:22:56;;;;;;;11.47;8.53;;;10.40;99.90;;;;;;5048390;28;20197;-73
2021/05/08 02:25:22;;;;;;;10.87;8.30;;;10.50;99.90;;;;;;5045751;28;20166;-73
2021/05/08 02:27:48;;;;;;;11.20;7.90;;;10.50;99.90;;;;;;5048486;28;20162;-73
2021/05/08 02:30:17;;;;;;;14.20;8.00;;;10.60;99.90;;;;;;5048198;28;20209;-73
2021/05/08 02:32:42;;;;;;;12.57;8.47;;;10.60;99.90;;;;;;5048237;28;20320;-72
2021/05/08 02:35:09;;;;;;;9.80;8.33;;;11.00;99.90;;;;;;5047460;28;20165;-74
2021/05/08 02:37:35;;;;;;;14.30;8.97;;;11.20;99.90;;;;;;5046635;28;20174;-72
2021/05/08 02:40:01;;;;;;;12.70;7.93;;;11.20;99.90;;;;;;5047658;28;20185;-72
2021/05/08 02:42:26;;;;;;;10.43;7.70;;;11.00;99.90;;;;;;5048241;28;20189;-73
2021/05/08 02:44:52;;;;;;;9.43;6.77;;;11.00;99.90;;;;;;5048163;28;20525;-73
2021/05/08 02:47:19;;;;;;;12.97;7.70;;;11.00;99.90;;;;;;5045491;28;20162;-73
2021/05/08 02:49:49;;;;;;;11.07;7.13;;;10.90;99.90;;;;;;5047682;28;20178;-73
2021/05/08 02:52:15;;;;;;;10.27;7.50;;;11.00;99.90;;;;;;5047916;28;20174;-73
2021/05/08 02:54:41;;;;;;;12.27;7.30;;;10.90;99.90;;;;;;5047539;28;20181;-73
2021/05/08 02:57:07;;;;;;;10.63;6.53;;;11.00;99.90;;;;;;5045221;28;20165;-73
2021/05/08 02:59:33;;;;;;;15.00;6.93;;;11.30;99.90;;;;;;5047628;28;20192;-73
2021/05/08 03:01:58;;;;;;;10.43;6.50;;;11.30;99.90;;;;;;5047825;28;20185;-73
2021/05/08 03:04:24;;;;;;;8.33;6.83;;;11.20;99.90;;;;;;5047948;28;20165;-73
2021/05/08 03:06:50;;;;;;;9.83;6.43;;;11.40;99.90;;;;;;5045220;28;20585;-73
2021/05/08 03:09:16;;;;;;;14.30;6.20;;;11.40;99.90;;;;;;5047005;28;20512;-72
2021/05/08 03:11:41;;;;;;;13.17;6.10;;;11.40;99.90;;;;;;5047664;28;20722;-72
2021/05/08 03:14:08;;;;;;;9.07;5.90;;;11.40;99.90;;;;;;5047574;28;20165;-73
2021/05/08 03:16:34;;;;;;;11.33;5.77;;;11.30;99.90;;;;;;5045075;28;20168;-73
2021/05/08 03:18:59;;;;;;;6.77;5.57;;;11.60;99.90;;;;;;5028749;28;20185;-72
2021/05/08 03:21:25;;;;;;;13.67;6.67;;;11.60;99.90;;;;;;5047789;28;20241;-73
2021/05/08 03:23:51;;;;;;;9.33;6.27;;;11.50;99.90;;;;;;5047231;28;20176;-72
2021/05/08 03:26:16;;;;;;;11.10;5.87;;;11.30;99.90;;;;;;5044433;28;20211;-72
2021/05/08 03:28:42;;;;;;;7.57;6.03;;;11.40;99.90;;;;;;5047117;28;20169;-73
2021/05/08 03:31:08;;;;;;;9.00;5.77;;;11.30;99.90;;;;;;5046973;28;20197;-73
2021/05/08 03:33:34;;;;;;;11.20;5.93;;;11.30;99.90;;;;;;5047150;28;20220;-73
2021/05/08 03:35:59;;;;;;;7.43;5.37;;;11.20;99.90;;;;;;5044538;28;20200;-73
2021/05/08 03:38:25;;;;;;;9.03;5.50;;;11.30;99.90;;;;;;5029581;28;20176;-72
2021/05/08 03:40:51;;;;;;;11.93;5.50;;;11.30;99.90;;;;;;5046699;28;20185;-72
2021/05/08 03:43:16;;;;;;;9.33;5.57;;;11.10;99.90;;;;;;5046831;28;20193;-73
2021/05/08 03:45:42;;;;;;;5.93;5.33;;;11.10;99.90;;;;;;5044194;28;20234;-72
2021/05/08 03:48:07;;;;;;;9.30;5.07;;;11.10;99.90;;;;;;5029103;28;20181;-72
2021/05/08 03:50:33;;;;;;;6.33;5.30;;;11.10;99.90;;;;;;5046436;28;20197;-73
2021/05/08 03:52:59;;;;;;;8.17;4.83;;;11.00;99.90;;;;;;5047052;28;20165;-73
2021/05/08 03:55:25;;;;;;;9.13;5.13;;;11.00;99.90;;;;;;5043993;28;20402;-72
2021/05/08 03:57:50;;;;;;;8.77;5.20;;;11.00;99.90;;;;;;5046903;28;20172;-72
2021/05/08 04:00:17;;;;;;;8.57;5.20;;;11.00;99.90;;;;;;5046421;28;20235;-72
2021/05/08 04:02:42;;;;;;;9.13;4.93;;;11.00;99.90;;;;;;5046639;28;20319;-73
2021/05/08 04:05:09;;;;;;;8.40;4.90;;;11.00;99.90;;;;;;5045496;28;20274;-72
2021/05/08 04:07:34;;;;;;;8.17;5.60;;;11.00;99.90;;;;;;5045137;28;20161;-72
2021/05/08 04:10:00;;;;;;;8.60;5.60;;;11.00;99.90;;;;;;5046009;28;20173;-72
2021/05/08 04:12:26;;;;;;;7.40;4.70;;;11.00;99.90;;;;;;5046561;28;20239;-73
2021/05/08 04:14:52;;;;;;;7.47;5.23;;;10.90;99.90;;;;;;5046380;28;20533;-73
2021/05/08 04:17:18;;;;;;;5.07;4.60;;;10.90;99.90;;;;;;5043763;28;20173;-72
2021/05/08 04:19:43;;;;;;;8.03;4.60;;;10.80;99.90;;;;;;5046086;28;20196;-73
2021/05/08 04:22:10;;;;;;;10.57;4.60;;;10.90;99.90;;;;;;5046146;28;20189;-72
2021/05/08 04:24:36;;;;;;;6.80;4.90;;;10.90;99.90;;;;;;5045725;28;20716;-72
2021/05/08 04:27:01;;;;;;;8.07;4.93;;;11.00;99.90;;;;;;5043651;28;20170;-73
2021/05/08 04:29:27;;;;;;;7.83;5.23;;;10.70;99.90;;;;;;5045337;28;20292;-73
2021/05/08 04:31:53;;;;;;;8.60;4.93;;;10.80;99.90;;;;;;5045857;28;20177;-73
2021/05/08 04:34:19;;;;;;;6.47;4.63;;;10.80;99.90;;;;;;5066069;28;20185;-72
2021/05/08 04:36:45;;;;;;;11.40;5.40;;;10.90;99.90;;;;;;5062306;28;20576;-72
2021/05/08 04:39:11;;;;;;;9.53;5.27;;;10.90;99.90;;;;;;5065455;28;20176;-72
2021/05/08 04:41:36;;;;;;;12.03;5.37;;;10.90;99.90;;;;;;5064516;28;20180;-72
2021/05/08 04:44:02;;;;;;;10.80;5.53;;;10.90;99.90;;;;;;5065707;28;20160;-72
2021/05/08 04:46:28;;;;;;;6.90;5.20;;;10.90;99.90;;;;;;5063480;28;20247;-73
2021/05/08 04:48:54;;;;;;;12.27;5.03;;;10.90;99.90;;;;;;5066014;28;20237;-73
2021/05/08 04:51:21;;;;;;;9.80;5.47;;;10.90;99.90;;;;;;5065529;28;20318;-73
2021/05/08 04:53:50;;;;;;;12.97;6.27;;;11.00;99.90;;;;;;5065876;28;20191;-72
2021/05/08 04:56:16;;;;;;;8.90;5.30;;;11.00;99.90;;;;;;5062626;28;20169;-73
2021/05/08 04:58:43;;;;;;;9.90;5.30;;;11.00;99.90;;;;;;5065825;28;20222;-72
2021/05/08 05:01:12;;;;;;;13.97;5.30;;;10.90;99.90;;;;;;5065279;28;20684;-72
2021/05/08 05:03:37;;;;;;;12.60;5.30;;;11.00;99.90;;;;;;5065643;28;20665;-72
2021/05/08 05:06:04;;;;;;;11.50;5.13;;;11.00;99.90;;;;;;5062904;28;20169;-72
2021/05/08 05:08:30;;;;;;;10.23;5.30;;;11.00;99.90;;;;;;5065633;28;20658;-73
2021/05/08 05:10:56;;;;;;;9.37;5.70;;;11.10;99.90;;;;;;5065113;28;20218;-73
2021/05/08 05:13:22;;;;;;;9.57;5.50;;;11.10;99.90;;;;;;5065572;28;20180;-72
2021/05/08 05:15:49;;;;;;;13.50;5.20;;;11.20;99.90;;;;;;5062972;28;20171;-72
2021/05/08 05:18:14;;;;;;;8.83;4.80;;;11.30;99.90;;;;;;5064031;28;20168;-72
2021/05/08 05:20:41;;;;;;;14.40;5.40;;;11.40;99.90;;;;;;5065284;28;20176;-72
2021/05/08 05:23:07;;;;;;;8.77;6.10;;;11.50;99.90;;;;;;5064289;28;20438;-72
2021/05/08 05:25:33;;;;;;;7.97;5.33;;;11.50;99.90;;;;;;5062570;28;20693;-72
2021/05/08 05:27:59;;;;;;;12.83;6.33;;;11.50;99.90;;;;;;5065547;28;20186;-73
2021/05/08 05:30:24;;;;;;;13.27;6.28;;;11.60;99.90;;;;;;5064609;28;20464;-73
2021/05/08 05:32:50;;;;;;;12.13;5.83;;;11.60;99.90;;;;;;5057391;28;20221;-72
2021/05/08 05:35:16;;;;;;;11.60;5.27;;;11.60;99.90;;;;;;5043624;28;20526;-72
2021/05/08 05:37:41;;;;;;;8.30;5.13;;;11.70;99.90;;;;;;5044777;28;20169;-73
2021/05/08 05:40:08;;;;;;;11.63;6.07;;;11.60;99.90;;;;;;5043947;28;20413;-73
2021/05/08 05:42:34;;;;;;;9.30;5.50;;;11.50;99.90;;;;;;5048107;28;20212;-73
2021/05/08 05:44:59;;;;;;;8.00;5.10;;;11.50;99.90;;;;;;5049155;28;20651;-73
2021/05/08 05:47:27;;;;;;;12.50;5.00;;;11.60;99.90;;;;;;5046862;28;20162;-73
2021/05/08 05:49:54;;;;;;;13.23;5.17;;;11.60;99.90;;;;;;5048709;28;20189;-73
2021/05/08 05:52:20;;;;;;;12.30;5.07;;;11.60;99.90;;;;;;5048971;28;20207;-73
2021/05/08 05:54:48;;;;;;;12.43;5.37;;;11.70;99.90;;;;;;5048441;28;20165;-73
2021/05/08 05:57:14;;;;;;;16.10;6.63;;;11.80;99.90;;;;;;5046396;28;20189;-73
2021/05/08 05:59:40;;;;;;;13.30;6.70;;;11.80;99.90;;;;;;5048757;28;20256;-73
2021/05/08 06:02:08;;;;;;;10.70;6.17;;;11.90;99.90;;;;;;5048446;28;20189;-73
2021/05/08 06:04:33;;;;;;;13.67;5.87;;;11.90;99.90;;;;;;5048866;28;20161;-73
2021/05/08 06:06:59;;;;;;;16.27;5.43;;;12.00;99.90;;;;;;5046309;28;20243;-73
2021/05/08 06:09:26;;;;;;;8.83;5.20;;;12.00;99.90;;;;;;5048255;28;20204;-72
2021/05/08 06:11:56;;;;;;;8.07;5.20;;;12.00;99.90;;;;;;5048709;28;20438;-73
2021/05/08 06:14:23;;;;;;;7.90;4.90;;;11.90;99.90;;;;;;5048458;28;20165;-73
2021/05/08 06:16:49;;;;;;;14.50;4.27;;;11.80;99.90;;;;;;5046000;28;20158;-73
2021/05/08 06:19:15;;;;;;;5.97;4.77;;;11.80;99.90;;;;;;5047857;28;20188;-74
2021/05/08 06:21:42;;;;;;;7.87;4.37;;;11.90;99.90;;;;;;5048392;28;20209;-73
2021/05/08 06:24:08;;;;;;;7.63;4.37;;;11.80;99.90;;;;;;5048132;28;20180;-73
2021/05/08 06:26:35;;;;;;;6.97;4.60;;;12.00;99.90;;;;;;5044937;28;20180;-73
2021/05/08 06:29:01;;;;;;;11.73;4.37;;;12.00;99.90;;;;;;5048020;28;20169;-72
2021/05/08 06:31:27;;;;;;;7.17;4.50;;;12.00;99.90;;;;;;5048121;28;20170;-73
2021/05/08 06:33:53;;;;;;;7.37;4.20;;;12.00;99.90;;;;;;5047454;28;20224;-73
2021/05/08 06:36:18;;;;;;;6.43;4.10;;;12.00;99.90;;;;;;5045373;28;20157;-73
2021/05/08 06:38:44;;;;;;;11.87;5.07;;;12.00;99.90;;;;;;5048112;28;20631;-73
2021/05/08 06:41:10;;;;;;;7.13;4.03;;;11.90;99.90;;;;;;5047529;28;20167;-73
2021/05/08 06:43:35;;;;;;;9.40;4.47;;;11.80;99.90;;;;;;5048068;28;20221;-73
2021/05/08 06:46:01;;;;;;;8.00;4.23;;;11.70;99.90;;;;;;5045382;28;20169;-72
2021/05/08 06:48:27;;;;;;;10.63;4.77;;;11.80;99.90;;;;;;5048230;28;20217;-73
2021/05/08 06:50:52;;;;;;;6.57;3.87;;;11.90;99.90;;;;;;5047584;28;20170;-73
2021/05/08 06:53:18;;;;;;;10.33;4.27;;;11.90;99.90;;;;;;5046212;28;20162;-73
2021/05/08 06:55:43;;;;;;;7.63;3.73;;;11.90;99.90;;;;;;5044937;28;20173;-73
2021/05/08 06:58:09;;;;;;;6.90;3.83;;;12.00;99.90;;;;;;5047686;28;20260;-73
2021/05/08 07:00:35;;;;;;;7.53;3.67;;;12.00;99.90;;;;;;5047454;28;20170;-73
2021/05/08 07:03:00;;;;;;;7.07;4.30;;;12.10;99.90;;;;;;5047547;28;20201;-72
2021/05/08 07:05:28;;;;;;;8.27;3.77;;;12.10;99.90;;;;;;5045067;28;20157;-72
2021/05/08 07:08:05;;;;;;;9.07;4.50;;;11.90;99.90;;;;;;5047455;28;20161;-73
2021/05/08 07:10:31;;;;;;;8.37;4.33;;;12.10;99.90;;;;;;5047083;28;20168;-73
2021/05/08 07:12:56;;;;;;;10.30;4.17;;;12.20;99.90;;;;;;5047508;28;20166;-73
2021/05/08 07:15:22;;;;;;;5.73;3.40;;;12.20;99.90;;;;;;5045002;28;20212;-73
2021/05/08 07:18:05;;;;;;;6.57;3.77;;;12.30;99.90;;;;;;5047099;28;20165;-73
2021/05/08 07:20:32;;;;;;;8.63;4.07;;;12.40;99.90;;;;;;5046991;28;20173;-73
2021/05/08 07:22:58;;;;;;;3.87;3.33;;;12.40;99.90;;;;;;5029331;28;20208;-73
2021/05/08 07:25:23;;;;;;;8.30;3.40;;;12.50;99.90;;;;;;5044327;28;20165;-73
2021/05/08 07:27:49;;;;;;;8.67;3.77;;;12.50;99.90;;;;;;5047140;28;20253;-73
2021/05/08 07:30:16;;;;;;;4.60;3.60;;;12.40;99.90;;;;;;5046786;28;20169;-73
2021/05/08 07:32:41;;;;;;;6.70;3.17;;;12.50;99.90;;;;;;5046719;28;20220;-73
2021/05/08 07:35:08;;;;;;;6.77;3.57;;;12.50;99.90;;;;;;5046219;28;20173;-73
2021/05/08 07:37:33;;;;;;;5.40;4.27;;;12.40;99.90;;;;;;5045362;28;20173;-72
2021/05/08 07:39:59;;;;;;;4.17;3.37;;;12.50;99.90;;;;;;5046526;28;20177;-72
2021/05/08 07:42:25;;;;;;;5.47;3.93;;;12.60;99.90;;;;;;5046972;28;20659;-72
2021/05/08 07:44:50;;;;;;;7.00;3.67;;;12.50;99.90;;;;;;5046861;28;20173;-72
2021/05/08 07:47:16;;;;;;;5.47;4.17;;;12.60;99.90;;;;;;5026285;28;20252;-72
2021/05/08 07:49:42;;;;;;;5.50;3.87;;;12.60;99.90;;;;;;5046487;28;20173;-72
2021/05/08 07:52:07;;;;;;;6.13;3.47;;;12.70;99.90;;;;;;5046599;28;20176;-72
2021/05/08 07:54:33;;;;;;;8.80;3.83;;;12.70;99.90;;;;;;5046291;28;20197;-72
2021/05/08 07:56:59;;;;;;;7.53;3.60;;;13.00;99.90;;;;;;5043970;28;20153;-72
2021/05/08 07:59:25;;;;;;;6.07;3.57;;;13.20;99.90;;;;;;5046573;28;20538;-72
2021/05/08 08:01:50;;;;;;;7.37;3.40;;;13.30;99.90;;;;;;5046393;28;20235;-72
2021/05/08 08:04:16;;;;;;;4.83;3.47;;;13.30;99.90;;;;;;5067192;28;20228;-72
2021/05/08 08:06:42;;;;;;;5.97;4.50;;;13.30;99.90;;;;;;5083960;28;20572;-72
2021/05/08 08:09:07;;;;;;;5.90;3.90;;;13.40;99.90;;;;;;5086326;28;20156;-73
2021/05/08 08:11:33;;;;;;;6.10;4.20;;;13.40;99.90;;;;;;5086042;28;20168;-73
2021/05/08 08:13:59;;;;;;;4.67;3.20;;;13.30;99.90;;;;;;5086221;28;20160;-73
2021/05/08 08:16:25;;;;;;;5.30;3.53;;;13.40;99.90;;;;;;5083801;28;20175;-72
2021/05/08 08:18:50;;;;;;;4.17;3.23;;;13.30;99.90;;;;;;5085768;28;20630;-72
2021/05/08 08:21:16;;;;;;;5.50;3.30;;;13.50;99.90;;;;;;5085504;28;20179;-72
2021/05/08 08:23:42;;;;;;;9.07;3.47;;;13.60;99.90;;;;;;5085807;28;20203;-72
2021/05/08 08:26:08;;;;;;;3.20;2.90;;;13.60;99.90;;;;;;5082710;28;20173;-72
2021/05/08 08:28:33;;;;;;;4.47;3.80;;;13.60;99.90;;;;;;5085776;28;20160;-73
2021/05/08 08:30:59;;;;;;;3.77;3.30;;;13.50;99.90;;;;;;5085714;28;20182;-72
2021/05/08 08:33:25;;;;;;;6.67;3.20;;;13.70;99.90;;;;;;5085769;28;20215;-72
2021/05/08 08:35:51;;;;;;;4.83;3.43;;;13.80;99.90;;;;;;5083117;28;20231;-72
2021/05/08 08:38:17;;;;;;;7.37;3.40;;;13.70;99.90;;;;;;5085708;28;20171;-72
2021/05/08 08:40:43;;;;;;;5.40;3.07;;;13.60;99.90;;;;;;5085253;28;20182;-72
2021/05/08 08:43:09;;;;;;;3.53;3.22;;;13.70;99.90;;;;;;5085468;28;20191;-72
2021/05/08 08:45:35;;;;;;;4.78;3.10;;;13.90;99.90;;;;;;5083069;28;20551;-72
2021/05/08 08:48:01;;;;;;;3.90;3.13;;;13.90;99.90;;;;;;5085508;28;20175;-73
2021/05/08 08:50:29;;;;;;;4.97;3.33;;;13.90;99.90;;;;;;5085563;28;20633;-73
2021/05/08 08:52:55;;;;;;;7.57;3.20;;;13.80;99.90;;;;;;5085657;28;20251;-73
2021/05/08 08:55:21;;;;;;;5.70;3.10;;;13.60;99.90;;;;;;5082850;28;20179;-73
2021/05/08 08:57:48;;;;;;;6.27;3.20;;;13.60;99.90;;;;;;5085042;28;20171;-72
2021/05/08 09:00:17;;;;;;;4.87;3.23;;;13.60;99.90;;;;;;5084528;28;20168;-72
2021/05/08 09:02:44;;;;;;;6.60;3.67;;;13.50;99.90;;;;;;5085176;28;20251;-73
2021/05/08 09:05:12;;;;;;;6.07;3.33;;;13.60;99.90;;;;;;5084310;28;20164;-73
2021/05/08 09:07:42;;;;;;;4.57;3.33;;;13.50;99.90;;;;;;5066255;28;20207;-72
2021/05/08 09:10:08;;;;;;;5.73;3.70;;;13.40;99.90;;;;;;5084833;28;20168;-73
2021/05/08 09:12:47;;;;;;;3.60;3.27;;;13.40;99.90;;;;;;5085519;28;20190;-73
2021/05/08 09:15:14;;;;;;;5.97;3.37;;;13.20;99.90;;;;;;5083949;28;20167;-72
2021/05/08 09:17:44;;;;;;;4.60;3.50;;;13.20;99.90;;;;;;5069372;28;20175;-72
2021/05/08 09:20:11;;;;;;;4.83;3.70;;;13.20;99.90;;;;;;5089224;28;20186;-72
2021/05/08 09:22:39;;;;;;;4.37;3.60;;;13.10;99.90;;;;;;5089555;28;20287;-73
2021/05/08 09:25:11;;;;;;;6.53;3.93;;;13.10;99.90;;;;;;5088352;28;20226;-73
2021/05/08 09:27:50;;;;;;;5.93;3.67;;;13.20;99.90;;;;;;5088092;28;20152;-73
2021/05/08 09:30:30;;;;;;;4.77;4.00;;;13.30;99.90;;;;;;5089016;28;20215;-73
2021/05/08 09:32:56;;;;;;;4.13;3.60;;;13.20;99.90;;;;;;5089183;28;20228;-73
2021/05/08 09:35:23;;;;;;;4.10;3.67;;;13.20;99.90;;;;;;5068774;28;20680;-73
2021/05/08 09:38:04;;;;;;;3.93;3.63;;;13.20;99.90;;;;;;5088997;28;20171;-73
2021/05/08 09:40:30;;;;;;;4.13;3.73;;;13.10;99.90;;;;;;5088520;28;20186;-73
2021/05/08 09:42:57;;;;;;;4.50;3.80;;;13.30;99.90;;;;;;5089075;28;20282;-73
2021/05/08 09:45:25;;;;;;;4.43;3.80;;;13.30;99.90;;;;;;5086556;28;20377;-72
2021/05/08 09:47:51;;;;;;;4.43;4.03;;;13.20;99.90;;;;;;5088829;28;20195;-73
2021/05/08 09:50:26;;;;;;;6.47;4.00;;;13.10;99.90;;;;;;5088518;28;20172;-73
2021/05/08 09:52:56;;;;;;;3.90;3.60;;;13.10;99.90;;;;;;5088872;28;20525;-73
2021/05/08 09:55:23;;;;;;;8.17;4.60;;;13.00;99.90;;;;;;5086110;28;20168;-73
2021/05/08 09:58:02;;;;;;;14.23;4.30;;;12.90;99.90;;;;;;5071082;28;20574;-73
2021/05/08 10:00:29;;;;;;;5.33;4.00;;;12.80;99.90;;;;;;5088651;28;20184;-73
2021/05/08 10:03:03;;;;;;;4.80;4.00;;;12.80;99.90;;;;;;5088565;28;20198;-73
2021/05/08 10:05:29;;;;;;;6.17;4.20;;;12.70;99.90;;;;;;5085886;28;20236;-73
2021/05/08 10:07:55;;;;;;;6.47;4.87;;;12.90;99.90;;;;;;5088787;28;20167;-72
2021/05/08 10:10:21;;;;;;;9.53;4.27;;;12.90;99.90;;;;;;5087630;28;20171;-73
2021/05/08 10:12:47;;;;;;;5.00;4.00;;;13.00;99.90;;;;;;5088291;28;20164;-73
2021/05/08 10:15:13;;;;;;;4.83;3.83;;;12.90;99.90;;;;;;5086901;28;20176;-72
2021/05/08 10:17:40;;;;;;;5.93;4.30;;;13.00;99.90;;;;;;5087397;28;20175;-72
2021/05/08 10:20:08;;;;;;;5.57;4.57;;;13.10;99.90;;;;;;5088252;28;20198;-72
2021/05/08 10:22:53;;;;;;;5.90;4.50;;;13.30;99.90;;;;;;5087961;28;20192;-72
2021/05/08 10:25:19;;;;;;;4.83;4.43;;;13.60;99.90;;;;;;5086120;28;20183;-73
2021/05/08 10:27:46;;;;;;;6.00;4.30;;;13.70;99.90;;;;;;5088092;28;20525;-72
2021/05/08 10:30:14;;;;;;;7.07;4.07;;;13.80;99.90;;;;;;5087834;28;20164;-72
2021/05/08 10:32:43;;;;;;;9.68;4.20;;;13.80;99.90;;;;;;5087976;28;20238;-72
2021/05/08 10:35:10;;;;;;;9.02;4.53;;;13.80;99.90;;;;;;5069253;28;20553;-72
2021/05/08 10:37:37;;;;;;;4.87;3.60;;;13.80;99.90;;;;;;5086890;28;20172;-72
2021/05/08 10:40:05;;;;;;;5.37;4.07;;;13.60;99.90;;;;;;5087347;28;20203;-72
2021/05/08 10:42:39;;;;;;;6.63;3.93;;;13.70;99.90;;;;;;5087561;28;20211;-71
2021/05/08 10:45:20;;;;;;;5.57;4.07;;;13.70;99.90;;;;;;5087206;28;20172;-71
2021/05/08 10:47:55;;;;;;;5.13;4.63;;;13.60;99.90;;;;;;5069271;28;20255;-71
2021/05/08 10:50:38;;;;;;;5.63;4.40;;;13.60;99.90;;;;;;5087322;28;20172;-71
2021/05/08 10:53:05;;;;;;;6.47;4.80;;;13.70;99.90;;;;;;5087173;28;20237;-71
2021/05/08 10:55:42;;;;;;;4.47;4.10;;;13.70;99.90;;;;;;5084348;28;20172;-71
2021/05/08 10:58:14;;;;;;;6.83;4.70;;;13.50;99.90;;;;;;5087462;28;20649;-72
2021/05/08 11:00:49;;;;;;;5.63;4.77;;;13.50;99.90;;;;;;5087085;28;20243;-72
2021/05/08 11:03:29;;;;;;;7.43;4.40;;;13.60;99.90;;;;;;5087003;28;20195;-72
2021/05/08 11:06:11;;;;;;;9.50;4.30;;;13.50;99.90;;;;;;5084822;28;20163;-72
2021/05/08 11:08:36;;;;;;;4.50;4.20;;;13.60;99.90;;;;;;5087428;28;20164;-72
2021/05/08 11:11:13;;;;;;;4.63;3.93;;;13.60;99.90;;;;;;5087102;28;20573;-71
2021/05/08 11:13:42;;;;;;;4.70;4.30;;;13.70;99.90;;;;;;5087167;28;20179;-71
2021/05/08 11:16:08;;;;;;;4.63;4.23;;;13.60;99.90;;;;;;5084517;28;20175;-72
2021/05/08 11:18:41;;;;;;;7.97;3.93;;;13.60;99.90;;;;;;5087083;28;20168;-72
2021/05/08 11:21:13;;;;;;;5.57;4.40;;;13.60;99.90;;;;;;5086867;28;20188;-72
2021/05/08 11:23:57;;;;;;;4.80;3.93;;;13.50;99.90;;;;;;5087114;28;20195;-72
2021/05/08 11:28:59;;;;;;;6.40;4.50;;;13.70;99.90;;;;;;5086882;28;20164;-72
2021/05/08 11:31:31;;;;;;;6.67;3.87;;;13.90;99.90;;;;;;5086725;28;20159;-72
2021/05/08 11:34:27;;;;;;;3.70;3.40;;;14.00;99.90;;;;;;5086689;28;20208;-72
2021/05/08 11:36:54;;;;;;;9.80;3.97;;;14.20;99.90;;;;;;5063846;28;20195;-71
2021/05/08 11:39:20;;;;;;;4.10;3.80;;;14.30;99.90;;;;;;5086161;28;20168;-72
2021/05/08 11:41:47;;;;;;;5.47;3.50;;;14.40;99.90;;;;;;5086735;28;20582;-72
2021/05/08 11:44:32;;;;;;;9.82;3.95;;;14.50;99.90;;;;;;5086661;28;20171;-72
2021/05/08 11:47:27;;;;;;;5.13;3.50;;;14.70;99.90;;;;;;5084597;28;20183;-72
2021/05/08 11:50:03;;;;;;;5.40;3.80;;;14.80;99.90;;;;;;5086346;28;20183;-72
2021/05/08 11:52:34;;;;;;;5.43;3.75;;;15.10;99.90;;;;;;5086765;28;20160;-72
2021/05/08 11:55:01;;;;;;;3.90;3.17;;;15.00;99.90;;;;;;5086131;28;20180;-72
2021/05/08 11:57:27;;;;;;;4.35;3.58;;;15.00;99.90;;;;;;5084386;28;20160;-73
2021/05/08 11:59:53;;;;;;;6.18;3.60;;;15.10;99.90;;;;;;5086285;28;20174;-72
2021/05/08 12:02:21;;;;;;;6.30;3.70;;;15.20;99.90;;;;;;5086135;28;20184;-73
2021/05/08 12:04:48;;;;;;;8.55;3.67;;;15.40;99.90;;;;;;5068513;28;20160;-73
2021/05/08 12:07:16;;;;;;;7.68;3.72;;;15.50;99.90;;;;;;5082896;28;20469;-73
2021/05/08 12:09:42;;;;;;;4.70;3.05;;;15.60;99.90;;;;;;5086073;28;20194;-72
2021/05/08 12:12:08;;;;;;;4.75;3.60;;;15.60;99.90;;;;;;5085756;28;20172;-73
2021/05/08 12:14:38;;;;;;;5.20;3.65;;;15.60;99.90;;;;;;5086256;28;20668;-73
2021/05/08 12:17:05;;;;;;;5.07;3.63;;;15.60;99.90;;;;;;5082632;28;20422;-72
2021/05/08 12:19:31;;;;;;;4.95;3.65;;;15.70;99.90;;;;;;5085973;28;20168;-73
2021/05/08 12:21:56;;;;;;;3.70;3.40;;;15.70;99.90;;;;;;5085970;28;20195;-72
2021/05/08 12:24:22;;;;;;;7.03;3.77;;;15.80;99.90;;;;;;5085299;28;20898;-73
2021/05/08 12:26:51;;;;;;;7.97;4.20;;;15.80;99.90;;;;;;5082919;28;20600;-72
2021/05/08 12:29:17;;;;;;;5.05;3.88;;;15.80;99.90;;;;;;5085857;28;20160;-73
2021/05/08 12:31:46;;;;;;;5.18;3.53;;;16.00;99.90;;;;;;5067687;28;20214;-73
2021/05/08 12:34:15;;;;;;;9.80;3.45;;;16.00;99.90;;;;;;5085638;28;20208;-72
2021/05/08 12:36:41;;;;;;;5.00;4.22;;;16.00;99.90;;;;;;5083463;28;20170;-73
2021/05/08 12:39:21;;;;;;;8.02;3.55;;;16.00;99.90;;;;;;5085718;28;20156;-73
2021/05/08 12:42:01;;;;;;;9.43;4.75;;;16.00;99.90;;;;;;5085202;28;20167;-73
2021/05/08 12:44:33;;;;;;;7.07;4.28;;;16.00;99.90;;;;;;5085744;28;20222;-73
2021/05/08 12:47:16;;;;;;;4.93;4.03;;;15.80;99.90;;;;;;5082797;28;20156;-73